Time;durP1;ratioP1;P1;durP2;ratioP2;P2;SDS_P1;SDS_P2;PMS_P1;PMS_P2;Temp;Humidity;BMP_temperature;BMP_pressure;BME280_temperature;BME280_humidity;BME280_pressure;Samples;Min_cycle;Max_cycle;Signal;HPM_P1;HPM_P2
2023/12/28 00:00:55;;;;;;;19.53;3.17;;;;;;;;;;4985675;28;20038;-48
2023/12/28 00:03:23;;;;;;;17.10;2.03;;;;;;;;;;4970447;28;20065;-49
2023/12/28 00:05:51;;;;;;;18.02;2.15;;;;;;;;;;4989673;28;20056;-46
2023/12/28 00:08:19;;;;;;;17.08;2.38;;;;;;;;;;4978799;28;20421;-47
2023/12/28 00:10:47;;;;;;;12.75;2.15;;;;;;;;;;4986870;28;20069;-46
2023/12/28 00:13:14;;;;;;;18.63;2.33;;;;;;;;;;4968167;28;20672;-47
2023/12/28 00:15:44;;;;;;;14.60;1.83;;;;;;;;;;4992464;28;20118;-46
2023/12/28 00:18:11;;;;;;;22.05;2.13;;;;;;;;;;4968620;28;20069;-47
2023/12/28 00:20:39;;;;;;;14.95;2.38;;;;;;;;;;4981718;28;20115;-46
2023/12/28 00:23:07;;;;;;;18.58;2.55;;;;;;;;;;4980747;28;20041;-46
2023/12/28 00:25:35;;;;;;;16.17;2.70;;;;;;;;;;4967165;28;20039;-46
2023/12/28 00:28:03;;;;;;;15.20;2.20;;;;;;;;;;4970599;28;20050;-48
2023/12/28 00:30:32;;;;;;;15.95;1.75;;;;;;;;;;4846750;28;20041;-47
2023/12/28 00:33:02;;;;;;;14.85;1.60;;;;;;;;;;4972963;28;20989;-47
2023/12/28 00:35:30;;;;;;;11.38;1.92;;;;;;;;;;4981336;28;20045;-47
2023/12/28 00:37:58;;;;;;;11.73;2.00;;;;;;;;;;4974195;28;20567;-48
2023/12/28 00:40:26;;;;;;;15.10;1.48;;;;;;;;;;4982145;28;20034;-46
2023/12/28 00:42:53;;;;;;;13.45;1.50;;;;;;;;;;4976193;28;20081;-46
2023/12/28 00:45:24;;;;;;;15.10;1.20;;;;;;;;;;4975491;28;20046;-47
2023/12/28 00:47:55;;;;;;;15.93;2.10;;;;;;;;;;4975866;28;20463;-47
2023/12/28 00:50:27;;;;;;;14.23;2.20;;;;;;;;;;4982975;28;20522;-49
2023/12/28 00:52:55;;;;;;;13.07;1.70;;;;;;;;;;4984140;28;20037;-46
2023/12/28 00:55:22;;;;;;;15.23;2.33;;;;;;;;;;4974343;28;20034;-46
2023/12/28 00:57:50;;;;;;;15.07;2.05;;;;;;;;;;4978863;28;20049;-49
2023/12/28 01:00:18;;;;;;;14.05;2.03;;;;;;;;;;4978482;28;20050;-47
2023/12/28 01:02:46;;;;;;;14.77;1.53;;;;;;;;;;4982857;28;20280;-49
2023/12/28 01:05:14;;;;;;;13.52;1.85;;;;;;;;;;4969749;28;20408;-49
2023/12/28 01:07:44;;;;;;;17.27;2.33;;;;;;;;;;4980169;28;20049;-52
2023/12/28 01:10:11;;;;;;;16.50;2.25;;;;;;;;;;4971647;28;20038;-46
2023/12/28 01:12:39;;;;;;;14.52;1.92;;;;;;;;;;4980669;28;20048;-46
2023/12/28 01:15:08;;;;;;;19.97;2.47;;;;;;;;;;4975531;28;20329;-47
2023/12/28 01:17:35;;;;;;;13.93;2.33;;;;;;;;;;4986865;28;20033;-46
2023/12/28 01:20:03;;;;;;;16.45;2.15;;;;;;;;;;4978509;28;20368;-46
2023/12/28 01:22:34;;;;;;;20.10;3.42;;;;;;;;;;4986204;28;20037;-46
2023/12/28 01:25:03;;;;;;;10.82;1.38;;;;;;;;;;4978687;28;20128;-46
2023/12/28 01:27:49;;;;;;;21.07;2.30;;;;;;;;;;4972472;28;20128;-48
2023/12/28 01:30:17;;;;;;;21.27;2.90;;;;;;;;;;4876201;28;33989;-47
2023/12/28 01:32:45;;;;;;;19.15;2.03;;;;;;;;;;4973874;28;20639;-46
2023/12/28 01:35:13;;;;;;;21.27;2.60;;;;;;;;;;4982815;28;20519;-45
2023/12/28 01:37:40;;;;;;;17.75;2.40;;;;;;;;;;4971173;28;20591;-47
2023/12/28 01:40:10;;;;;;;21.50;3.23;;;;;;;;;;4983183;28;20502;-46
2023/12/28 01:42:39;;;;;;;14.18;2.45;;;;;;;;;;4972356;28;20480;-46
2023/12/28 01:45:07;;;;;;;15.40;2.25;;;;;;;;;;4988631;28;20046;-47
2023/12/28 01:47:35;;;;;;;20.77;2.38;;;;;;;;;;4967152;28;20125;-49
2023/12/28 01:50:03;;;;;;;16.85;2.40;;;;;;;;;;4978590;28;20862;-46
2023/12/28 01:52:31;;;;;;;19.50;2.90;;;;;;;;;;4974313;28;20072;-49
2023/12/28 01:55:00;;;;;;;15.70;1.90;;;;;;;;;;4983214;28;20041;-49
2023/12/28 01:57:29;;;;;;;23.13;2.78;;;;;;;;;;4971504;28;20038;-50
2023/12/28 01:59:58;;;;;;;17.60;1.90;;;;;;;;;;4972305;28;20046;-47
2023/12/28 02:02:26;;;;;;;14.40;3.03;;;;;;;;;;4977678;28;20142;-48
2023/12/28 02:04:54;;;;;;;20.30;2.70;;;;;;;;;;4978798;28;20096;-47
2023/12/28 02:07:22;;;;;;;18.60;2.45;;;;;;;;;;4977735;28;20037;-47
2023/12/28 02:09:50;;;;;;;21.77;2.15;;;;;;;;;;4963820;28;20045;-47
2023/12/28 02:12:18;;;;;;;16.55;1.85;;;;;;;;;;4975556;28;20120;-47
2023/12/28 02:14:47;;;;;;;18.05;2.40;;;;;;;;;;4978363;28;20637;-47
2023/12/28 02:17:17;;;;;;;21.07;3.40;;;;;;;;;;4986994;28;20041;-47
2023/12/28 02:19:48;;;;;;;15.18;2.03;;;;;;;;;;4978707;28;20069;-49
2023/12/28 02:22:17;;;;;;;18.67;2.50;;;;;;;;;;4972762;28;20034;-46
2023/12/28 02:25:03;;;;;;;17.50;2.60;;;;;;;;;;4985494;28;20436;-46
2023/12/28 02:27:31;;;;;;;18.63;2.95;;;;;;;;;;4978583;28;20042;-47
2023/12/28 02:30:02;;;;;;;21.20;2.17;;;;;;;;;;4869799;28;20124;-52
2023/12/28 02:32:36;;;;;;;11.35;1.70;;;;;;;;;;4975349;28;20054;-48
2023/12/28 02:35:09;;;;;;;17.85;2.10;;;;;;;;;;4979928;28;20037;-46
2023/12/28 02:37:38;;;;;;;19.67;2.53;;;;;;;;;;4976445;28;20354;-48
2023/12/28 02:40:08;;;;;;;19.33;1.85;;;;;;;;;;4986051;28;20046;-47
2023/12/28 02:42:35;;;;;;;24.77;3.07;;;;;;;;;;4964535;28;20038;-48
2023/12/28 02:45:03;;;;;;;20.17;2.15;;;;;;;;;;4967879;28;20466;-48
2023/12/28 02:47:31;;;;;;;23.85;3.65;;;;;;;;;;4990542;28;20126;-47
2023/12/28 02:49:59;;;;;;;21.30;2.40;;;;;;;;;;4986723;28;20511;-47
2023/12/28 02:52:27;;;;;;;18.15;2.53;;;;;;;;;;4979617;28;20034;-48
2023/12/28 02:54:54;;;;;;;30.83;3.13;;;;;;;;;;4973633;28;20116;-50
2023/12/28 02:57:24;;;;;;;17.35;2.35;;;;;;;;;;4978721;28;20552;-53
2023/12/28 02:59:56;;;;;;;22.50;2.90;;;;;;;;;;4983757;28;20046;-49
2023/12/28 03:02:24;;;;;;;18.40;1.88;;;;;;;;;;4985335;28;20050;-48
2023/12/28 03:04:52;;;;;;;17.92;2.25;;;;;;;;;;4980651;28;20137;-53
2023/12/28 03:07:20;;;;;;;12.33;1.00;;;;;;;;;;4977686;28;20595;-52
2023/12/28 03:09:49;;;;;;;8.85;1.27;;;;;;;;;;4979451;28;20446;-57
2023/12/28 03:12:17;;;;;;;9.50;1.63;;;;;;;;;;4987574;28;20423;-56
2023/12/28 03:14:46;;;;;;;11.65;1.02;;;;;;;;;;4973662;28;20124;-55
2023/12/28 03:17:15;;;;;;;15.68;2.03;;;;;;;;;;4992152;28;20496;-56
2023/12/28 03:19:43;;;;;;;13.93;1.77;;;;;;;;;;4988483;28;20125;-55
2023/12/28 03:22:11;;;;;;;12.63;1.70;;;;;;;;;;4979269;28;20121;-54
2023/12/28 03:24:39;;;;;;;15.73;2.08;;;;;;;;;;4977425;28;20046;-57
2023/12/28 03:27:07;;;;;;;15.40;1.90;;;;;;;;;;4986696;28;20092;-57
2023/12/28 03:29:34;;;;;;;11.23;1.50;;;;;;;;;;4895739;28;20057;-56
2023/12/28 03:32:04;;;;;;;14.80;1.67;;;;;;;;;;4937757;28;20060;-57
2023/12/28 03:34:31;;;;;;;19.58;2.15;;;;;;;;;;4951975;28;20042;-56
2023/12/28 03:36:59;;;;;;;17.92;1.60;;;;;;;;;;4981128;28;20416;-58
2023/12/28 03:39:27;;;;;;;23.17;3.30;;;;;;;;;;4955928;28;20052;-57
2023/12/28 03:41:55;;;;;;;20.38;3.10;;;;;;;;;;4984775;28;20042;-55
2023/12/28 03:44:23;;;;;;;18.50;3.07;;;;;;;;;;4986504;28;20374;-51
2023/12/28 03:46:51;;;;;;;23.67;2.50;;;;;;;;;;4977343;28;20133;-55
2023/12/28 03:49:21;;;;;;;22.00;2.25;;;;;;;;;;4988165;28;20366;-51
2023/12/28 03:51:49;;;;;;;19.98;2.30;;;;;;;;;;4949000;28;20107;-53
2023/12/28 03:54:19;;;;;;;17.45;1.98;;;;;;;;;;4998236;28;20754;-54
2023/12/28 03:56:48;;;;;;;13.87;1.93;;;;;;;;;;4987446;28;20066;-51
2023/12/28 03:59:16;;;;;;;22.17;2.70;;;;;;;;;;4951129;28;20039;-55
2023/12/28 04:01:44;;;;;;;19.60;2.58;;;;;;;;;;4988827;28;20049;-55
2023/12/28 04:04:12;;;;;;;19.95;2.95;;;;;;;;;;4977979;28;20049;-54
2023/12/28 04:06:43;;;;;;;26.35;3.15;;;;;;;;;;4987546;28;20056;-54
2023/12/28 04:09:12;;;;;;;25.20;2.43;;;;;;;;;;4994926;28;20054;-54
2023/12/28 04:11:41;;;;;;;18.40;2.65;;;;;;;;;;4977386;28;20515;-57
2023/12/28 04:14:09;;;;;;;23.35;2.63;;;;;;;;;;4983492;28;20095;-57
2023/12/28 04:16:37;;;;;;;18.35;1.90;;;;;;;;;;4980116;28;20038;-56
2023/12/28 04:19:05;;;;;;;16.02;1.42;;;;;;;;;;4978088;28;20026;-52
2023/12/28 04:21:32;;;;;;;19.60;2.80;;;;;;;;;;4983080;28;20038;-53
2023/12/28 04:24:02;;;;;;;18.85;2.85;;;;;;;;;;4977864;28;20037;-54
2023/12/28 04:26:30;;;;;;;12.75;1.58;;;;;;;;;;4979321;28;20137;-54
2023/12/28 04:28:58;;;;;;;23.75;3.13;;;;;;;;;;4925179;28;20048;-56
2023/12/28 04:31:26;;;;;;;14.73;2.15;;;;;;;;;;4902829;28;20053;-54
2023/12/28 04:33:57;;;;;;;18.33;2.40;;;;;;;;;;4983897;28;20496;-56
2023/12/28 04:36:24;;;;;;;14.48;2.10;;;;;;;;;;4987258;28;20045;-56
2023/12/28 04:38:52;;;;;;;18.10;2.00;;;;;;;;;;4976630;28;20488;-52
2023/12/28 04:41:22;;;;;;;23.00;2.47;;;;;;;;;;4978891;28;20037;-50
2023/12/28 04:43:49;;;;;;;12.07;2.65;;;;;;;;;;4974000;28;20057;-53
2023/12/28 04:46:17;;;;;;;28.40;2.57;;;;;;;;;;4965088;28;20046;-56
2023/12/28 04:48:45;;;;;;;20.25;1.90;;;;;;;;;;4970594;28;20057;-52
2023/12/28 04:51:12;;;;;;;20.42;2.15;;;;;;;;;;4981666;28;20511;-51
2023/12/28 04:53:40;;;;;;;15.80;1.83;;;;;;;;;;4967423;28;20057;-54
2023/12/28 04:56:08;;;;;;;14.32;2.40;;;;;;;;;;4974457;28;20484;-54
2023/12/28 04:58:39;;;;;;;16.83;2.00;;;;;;;;;;4956256;28;20524;-54
2023/12/28 05:01:07;;;;;;;23.02;2.65;;;;;;;;;;4977890;28;20041;-54
2023/12/28 05:03:35;;;;;;;18.73;2.38;;;;;;;;;;4987567;28;20045;-51
2023/12/28 05:06:03;;;;;;;17.27;1.55;;;;;;;;;;4983651;28;20056;-55
2023/12/28 05:08:30;;;;;;;23.40;3.00;;;;;;;;;;4978668;28;20064;-50
2023/12/28 05:10:58;;;;;;;16.30;1.93;;;;;;;;;;4986756;28;20523;-54
2023/12/28 05:13:26;;;;;;;20.95;2.42;;;;;;;;;;4971472;28;20481;-52
2023/12/28 05:15:55;;;;;;;18.25;2.08;;;;;;;;;;4982812;28;20576;-53
2023/12/28 05:18:23;;;;;;;19.05;2.08;;;;;;;;;;4988264;28;20049;-49
2023/12/28 05:20:51;;;;;;;21.27;3.13;;;;;;;;;;4974739;28;20078;-52
2023/12/28 05:23:21;;;;;;;13.77;1.77;;;;;;;;;;4979735;28;20042;-55
2023/12/28 05:25:49;;;;;;;16.05;2.03;;;;;;;;;;4989673;28;20053;-53
2023/12/28 05:28:17;;;;;;;20.48;2.63;;;;;;;;;;4975164;28;20078;-54
2023/12/28 05:30:45;;;;;;;17.05;1.85;;;;;;;;;;4863554;28;20038;-56
2023/12/28 05:33:14;;;;;;;21.45;3.75;;;;;;;;;;4978084;28;20033;-53
2023/12/28 05:35:42;;;;;;;22.90;2.13;;;;;;;;;;4973395;28;20077;-50
2023/12/28 05:38:10;;;;;;;13.75;1.30;;;;;;;;;;4984366;28;20048;-52
2023/12/28 05:40:38;;;;;;;21.20;3.70;;;;;;;;;;4969455;28;20042;-54
2023/12/28 05:43:06;;;;;;;22.08;2.30;;;;;;;;;;4974918;28;20046;-51
2023/12/28 05:45:34;;;;;;;11.38;1.60;;;;;;;;;;4985216;28;20043;-55
2023/12/28 05:48:01;;;;;;;18.23;2.30;;;;;;;;;;4971089;28;20128;-54
2023/12/28 05:50:31;;;;;;;22.98;2.35;;;;;;;;;;4968519;28;20042;-55
2023/12/28 05:53:02;;;;;;;22.30;2.42;;;;;;;;;;4972517;28;20547;-58
2023/12/28 05:55:30;;;;;;;20.75;2.47;;;;;;;;;;4998971;28;20496;-59
2023/12/28 05:57:58;;;;;;;15.02;1.65;;;;;;;;;;4964020;28;20436;-56
2023/12/28 06:00:26;;;;;;;16.37;1.90;;;;;;;;;;4980140;28;20056;-58
2023/12/28 06:02:54;;;;;;;21.60;3.28;;;;;;;;;;4964918;28;20034;-59
2023/12/28 06:05:21;;;;;;;20.45;2.03;;;;;;;;;;4970284;28;20408;-58
2023/12/28 06:07:50;;;;;;;22.17;2.03;;;;;;;;;;4979847;28;20184;-59
2023/12/28 06:10:19;;;;;;;13.90;1.27;;;;;;;;;;4969447;28;20049;-58
2023/12/28 06:12:46;;;;;;;20.23;1.90;;;;;;;;;;4974296;28;20053;-57
2023/12/28 06:15:17;;;;;;;19.17;2.28;;;;;;;;;;4987299;28;20832;-58
2023/12/28 06:17:45;;;;;;;16.08;1.95;;;;;;;;;;4969170;28;20052;-56
2023/12/28 06:20:13;;;;;;;18.70;1.52;;;;;;;;;;4977137;28;20117;-57
2023/12/28 06:22:41;;;;;;;18.63;1.67;;;;;;;;;;4968009;28;20050;-57
2023/12/28 06:25:12;;;;;;;21.20;2.30;;;;;;;;;;4975541;28;20042;-57
2023/12/28 06:27:39;;;;;;;15.48;2.55;;;;;;;;;;4971116;28;20152;-56
2023/12/28 06:30:07;;;;;;;20.13;2.58;;;;;;;;;;4859086;28;20064;-58
2023/12/28 06:32:52;;;;;;;16.88;2.17;;;;;;;;;;4965433;28;20176;-58
2023/12/28 06:35:23;;;;;;;19.95;2.38;;;;;;;;;;4972268;28;20100;-58
2023/12/28 06:37:51;;;;;;;14.67;1.90;;;;;;;;;;4981421;28;20042;-57
2023/12/28 06:40:20;;;;;;;28.30;3.03;;;;;;;;;;4979182;28;20060;-56
2023/12/28 06:42:48;;;;;;;19.42;2.13;;;;;;;;;;4974822;28;20355;-56
2023/12/28 06:45:16;;;;;;;15.02;1.75;;;;;;;;;;4978519;28;20045;-50
2023/12/28 06:47:44;;;;;;;22.13;2.33;;;;;;;;;;4969080;28;20049;-55
2023/12/28 06:50:12;;;;;;;17.87;2.23;;;;;;;;;;4980633;28;20119;-52
2023/12/28 06:52:40;;;;;;;26.77;2.55;;;;;;;;;;4970650;28;20042;-52
2023/12/28 06:55:08;;;;;;;20.65;2.72;;;;;;;;;;4971705;28;20050;-55
2023/12/28 06:57:37;;;;;;;18.77;1.90;;;;;;;;;;4969368;28;20528;-54
2023/12/28 07:00:05;;;;;;;23.95;2.53;;;;;;;;;;4969804;28;20042;-54
2023/12/28 07:02:35;;;;;;;16.83;2.40;;;;;;;;;;4976311;28;20069;-55
2023/12/28 07:05:06;;;;;;;21.90;3.22;;;;;;;;;;4976437;28;20338;-52
2023/12/28 07:07:33;;;;;;;19.85;2.55;;;;;;;;;;4990094;28;20635;-52
2023/12/28 07:10:03;;;;;;;18.00;2.67;;;;;;;;;;4978206;28;20097;-53
2023/12/28 07:12:30;;;;;;;17.73;3.08;;;;;;;;;;4976451;28;20354;-52
2023/12/28 07:15:00;;;;;;;18.37;1.67;;;;;;;;;;4973608;28;20065;-52
2023/12/28 07:17:27;;;;;;;21.05;3.45;;;;;;;;;;4988520;28;20046;-51
2023/12/28 07:19:55;;;;;;;27.55;2.90;;;;;;;;;;4973542;28;20124;-52
2023/12/28 07:22:23;;;;;;;23.55;3.00;;;;;;;;;;4984351;28;20424;-49
2023/12/28 07:24:52;;;;;;;19.88;2.25;;;;;;;;;;4987113;28;20474;-55
2023/12/28 07:27:20;;;;;;;21.50;2.50;;;;;;;;;;4978188;28;20141;-54
2023/12/28 07:29:48;;;;;;;21.15;2.00;;;;;;;;;;4917551;28;20041;-51
2023/12/28 07:32:17;;;;;;;17.50;2.45;;;;;;;;;;4898461;28;20038;-54
2023/12/28 07:34:44;;;;;;;17.95;2.28;;;;;;;;;;4977692;28;20057;-53
2023/12/28 07:37:12;;;;;;;19.30;2.28;;;;;;;;;;4974516;28;20038;-51
2023/12/28 07:39:40;;;;;;;17.83;3.13;;;;;;;;;;4985273;28;20607;-54
2023/12/28 07:42:08;;;;;;;20.17;2.80;;;;;;;;;;4980542;28;20140;-55
2023/12/28 07:44:36;;;;;;;19.05;2.30;;;;;;;;;;4983118;28;20307;-50
2023/12/28 07:47:04;;;;;;;18.48;2.20;;;;;;;;;;4987318;28;20045;-51
2023/12/28 07:49:37;;;;;;;24.40;2.80;;;;;;;;;;4986101;28;20758;-52
2023/12/28 07:52:05;;;;;;;20.63;2.97;;;;;;;;;;4987282;28;20041;-55
2023/12/28 07:54:33;;;;;;;18.15;2.33;;;;;;;;;;4982146;28;20042;-53
2023/12/28 07:57:09;;;;;;;27.27;2.70;;;;;;;;;;4991331;28;20050;-53
2023/12/28 07:59:36;;;;;;;28.92;3.80;;;;;;;;;;4984515;28;20529;-53
2023/12/28 08:02:04;;;;;;;32.90;3.75;;;;;;;;;;4986457;28;20041;-52
2023/12/28 08:04:32;;;;;;;24.90;3.17;;;;;;;;;;4972830;28;20049;-55
2023/12/28 08:07:01;;;;;;;30.17;3.33;;;;;;;;;;4985339;28;20052;-54
2023/12/28 08:09:29;;;;;;;18.20;2.88;;;;;;;;;;4990242;28;20048;-52
2023/12/28 08:11:57;;;;;;;21.33;2.25;;;;;;;;;;4968671;28;20133;-54
2023/12/28 08:14:26;;;;;;;18.27;2.58;;;;;;;;;;4988384;28;20046;-52
2023/12/28 08:16:54;;;;;;;18.53;2.70;;;;;;;;;;4988163;28;20052;-53
2023/12/28 08:19:22;;;;;;;16.30;1.65;;;;;;;;;;4957393;28;20053;-52
2023/12/28 08:21:50;;;;;;;23.20;3.25;;;;;;;;;;4987249;28;20046;-52
2023/12/28 08:24:19;;;;;;;17.88;3.53;;;;;;;;;;4976609;28;20053;-53
2023/12/28 08:26:47;;;;;;;21.58;2.78;;;;;;;;;;4986568;28;20057;-53
2023/12/28 08:29:14;;;;;;;19.67;3.03;;;;;;;;;;4899733;28;20702;-52
2023/12/28 08:31:42;;;;;;;23.00;3.33;;;;;;;;;;4920027;28;20057;-53
2023/12/28 08:34:15;;;;;;;16.90;1.98;;;;;;;;;;4971431;28;20049;-52
2023/12/28 08:36:43;;;;;;;26.13;2.40;;;;;;;;;;4981059;28;20048;-51
2023/12/28 08:39:11;;;;;;;15.55;1.80;;;;;;;;;;4973928;28;20038;-55
2023/12/28 08:41:40;;;;;;;21.83;2.97;;;;;;;;;;4979060;28;20049;-52
2023/12/28 08:44:08;;;;;;;17.52;3.55;;;;;;;;;;4980453;28;20056;-55
2023/12/28 08:46:38;;;;;;;16.25;2.28;;;;;;;;;;4976138;28;20042;-52
2023/12/28 08:49:06;;;;;;;18.00;2.45;;;;;;;;;;4975728;28;22494;-51
2023/12/28 08:51:34;;;;;;;19.15;3.08;;;;;;;;;;4978891;28;20100;-52
2023/12/28 08:54:02;;;;;;;16.63;1.60;;;;;;;;;;4986274;28;20189;-53
2023/12/28 08:56:30;;;;;;;16.63;2.22;;;;;;;;;;4975545;28;20616;-54
2023/12/28 08:58:59;;;;;;;21.10;2.20;;;;;;;;;;4983701;28;20424;-53
2023/12/28 09:01:29;;;;;;;17.42;2.22;;;;;;;;;;4977489;28;20675;-51
2023/12/28 09:03:57;;;;;;;14.48;2.00;;;;;;;;;;4993271;28;20068;-55
2023/12/28 09:06:26;;;;;;;15.23;2.30;;;;;;;;;;4977891;28;20037;-55
2023/12/28 09:08:54;;;;;;;19.67;3.42;;;;;;;;;;4967937;28;20049;-54
2023/12/28 09:11:22;;;;;;;16.95;2.30;;;;;;;;;;4973465;28;20128;-52
2023/12/28 09:13:50;;;;;;;16.75;2.92;;;;;;;;;;4977768;28;20038;-55
2023/12/28 09:16:19;;;;;;;18.23;1.63;;;;;;;;;;4979271;28;20057;-54
2023/12/28 09:18:47;;;;;;;17.30;1.87;;;;;;;;;;4978744;28;20042;-51
2023/12/28 09:21:15;;;;;;;18.23;2.28;;;;;;;;;;4979808;28;20618;-51
2023/12/28 09:23:42;;;;;;;21.60;2.45;;;;;;;;;;4985006;28;20057;-51
2023/12/28 09:26:10;;;;;;;16.95;2.30;;;;;;;;;;4973904;28;20046;-55
2023/12/28 09:28:38;;;;;;;21.13;2.72;;;;;;;;;;4971274;28;20136;-50
2023/12/28 09:31:07;;;;;;;17.10;2.30;;;;;;;;;;4835296;28;20061;-51
2023/12/28 09:33:36;;;;;;;21.52;2.75;;;;;;;;;;4981064;28;20580;-51
2023/12/28 09:36:04;;;;;;;19.95;2.45;;;;;;;;;;4976650;28;20092;-50
2023/12/28 09:38:33;;;;;;;12.30;1.48;;;;;;;;;;4977813;28;20049;-53
2023/12/28 09:41:06;;;;;;;17.55;1.45;;;;;;;;;;4982124;28;20107;-55
2023/12/28 09:43:37;;;;;;;18.53;1.53;;;;;;;;;;4958661;28;20042;-51
2023/12/28 09:46:07;;;;;;;17.63;2.30;;;;;;;;;;4970607;28;20116;-53
2023/12/28 09:48:37;;;;;;;17.80;2.20;;;;;;;;;;4972687;28;20042;-55
2023/12/28 09:51:11;;;;;;;16.13;1.25;;;;;;;;;;4976417;28;20416;-52
2023/12/28 09:53:43;;;;;;;18.20;1.80;;;;;;;;;;4971113;28;20048;-54
2023/12/28 09:56:14;;;;;;;17.37;2.07;;;;;;;;;;4984933;28;20163;-55
2023/12/28 09:58:43;;;;;;;20.40;1.58;;;;;;;;;;4975875;28;20073;-50
2023/12/28 10:01:11;;;;;;;22.63;2.58;;;;;;;;;;4974390;28;20488;-49
2023/12/28 10:03:40;;;;;;;16.05;1.67;;;;;;;;;;4971850;28;20115;-49
2023/12/28 10:06:08;;;;;;;18.92;2.38;;;;;;;;;;4979786;28;20111;-49
2023/12/28 10:08:36;;;;;;;17.70;2.00;;;;;;;;;;4975872;28;20056;-48
2023/12/28 10:11:05;;;;;;;19.90;2.38;;;;;;;;;;4981723;28;20530;-52
2023/12/28 10:13:34;;;;;;;20.38;3.28;;;;;;;;;;4957082;28;20050;-50
2023/12/28 10:16:05;;;;;;;19.13;2.17;;;;;;;;;;4977777;28;20046;-52
2023/12/28 10:18:33;;;;;;;20.75;2.60;;;;;;;;;;4974560;28;20045;-51
2023/12/28 10:21:02;;;;;;;13.70;1.87;;;;;;;;;;4973318;28;20080;-49
2023/12/28 10:23:30;;;;;;;16.67;2.00;;;;;;;;;;4966471;28;21958;-50
2023/12/28 10:25:58;;;;;;;22.48;1.92;;;;;;;;;;4961101;28;20042;-49
2023/12/28 10:28:25;;;;;;;28.92;2.33;;;;;;;;;;4981695;28;20041;-50
2023/12/28 10:30:55;;;;;;;24.05;2.90;;;;;;;;;;4819255;28;20049;-54
2023/12/28 10:33:23;;;;;;;21.50;2.23;;;;;;;;;;4981288;28;20042;-55
2023/12/28 10:35:52;;;;;;;17.55;2.58;;;;;;;;;;4969112;28;20053;-52
2023/12/28 10:38:21;;;;;;;15.68;2.00;;;;;;;;;;4981730;28;20500;-49
2023/12/28 10:40:49;;;;;;;22.80;2.35;;;;;;;;;;4973427;28;20065;-54
2023/12/28 10:43:17;;;;;;;27.85;3.13;;;;;;;;;;4973221;28;20565;-50
2023/12/28 10:45:47;;;;;;;21.20;2.90;;;;;;;;;;4983096;28;20046;-51
2023/12/28 10:48:18;;;;;;;21.38;3.00;;;;;;;;;;4974370;28;20058;-49
2023/12/28 10:50:48;;;;;;;23.08;2.90;;;;;;;;;;4965205;28;20560;-53
2023/12/28 10:53:21;;;;;;;20.88;2.58;;;;;;;;;;4966512;28;20051;-54
2023/12/28 10:55:53;;;;;;;14.93;1.73;;;;;;;;;;4982170;28;20080;-51
2023/12/28 10:58:26;;;;;;;18.77;2.17;;;;;;;;;;4967052;28;20124;-52
2023/12/28 11:00:55;;;;;;;18.77;1.98;;;;;;;;;;4988331;28;20480;-51
2023/12/28 11:03:27;;;;;;;15.18;1.85;;;;;;;;;;4967767;28;20548;-50
2023/12/28 11:05:56;;;;;;;19.33;2.25;;;;;;;;;;4983508;28;20038;-51
2023/12/28 11:08:23;;;;;;;22.30;3.33;;;;;;;;;;4967279;28;21716;-50
2023/12/28 11:10:53;;;;;;;17.70;1.83;;;;;;;;;;4990273;28;20057;-53
2023/12/28 11:13:21;;;;;;;17.95;2.33;;;;;;;;;;4964086;28;20038;-51
2023/12/28 11:15:50;;;;;;;16.75;2.10;;;;;;;;;;4984728;28;20208;-53
2023/12/28 11:18:20;;;;;;;16.70;1.65;;;;;;;;;;4969547;28;20056;-51
2023/12/28 11:20:49;;;;;;;15.93;1.80;;;;;;;;;;4985500;28;20500;-51
2023/12/28 11:23:18;;;;;;;22.67;2.33;;;;;;;;;;4970643;28;20894;-54
2023/12/28 11:25:46;;;;;;;19.95;2.03;;;;;;;;;;4969543;28;20053;-53
2023/12/28 11:28:17;;;;;;;12.25;1.48;;;;;;;;;;4972658;28;20046;-55
2023/12/28 11:30:44;;;;;;;13.88;2.60;;;;;;;;;;4836766;28;20053;-56
2023/12/28 11:33:12;;;;;;;12.20;1.95;;;;;;;;;;4970052;28;20123;-53
2023/12/28 11:35:41;;;;;;;15.17;1.60;;;;;;;;;;4966009;28;20551;-55
2023/12/28 11:38:10;;;;;;;12.93;2.55;;;;;;;;;;4974389;28;20507;-52
2023/12/28 11:40:42;;;;;;;23.60;2.75;;;;;;;;;;4969945;28;20050;-54
2023/12/28 11:43:23;;;;;;;9.52;1.30;;;;;;;;;;4972614;28;20041;-53
2023/12/28 11:45:55;;;;;;;13.98;1.38;;;;;;;;;;4973610;28;20042;-53
2023/12/28 11:48:24;;;;;;;13.13;2.37;;;;;;;;;;4976781;28;20049;-51
2023/12/28 11:50:55;;;;;;;16.67;2.00;;;;;;;;;;4979309;28;20041;-51
2023/12/28 11:53:23;;;;;;;14.18;1.50;;;;;;;;;;4972534;28;20600;-54
2023/12/28 11:55:51;;;;;;;17.30;2.83;;;;;;;;;;4989957;28;20052;-52
2023/12/28 11:58:18;;;;;;;12.35;1.88;;;;;;;;;;4967542;28;20052;-51
2023/12/28 12:00:48;;;;;;;15.27;1.80;;;;;;;;;;4992040;28;20137;-54
2023/12/28 12:03:17;;;;;;;12.25;1.60;;;;;;;;;;4971065;28;20566;-52
2023/12/28 12:05:44;;;;;;;8.95;1.38;;;;;;;;;;4979065;28;20050;-49
2023/12/28 12:08:14;;;;;;;8.88;1.40;;;;;;;;;;4980777;28;20041;-52
2023/12/28 12:10:42;;;;;;;10.32;1.35;;;;;;;;;;4986241;28;20052;-49
2023/12/28 12:13:10;;;;;;;13.27;1.40;;;;;;;;;;4973784;28;21607;-52
2023/12/28 12:15:38;;;;;;;8.45;1.10;;;;;;;;;;4987048;28;20540;-49
2023/12/28 12:18:08;;;;;;;10.48;1.48;;;;;;;;;;4978493;28;20894;-54
2023/12/28 12:20:36;;;;;;;13.73;1.42;;;;;;;;;;4981477;28;20046;-55
2023/12/28 12:23:04;;;;;;;6.80;0.95;;;;;;;;;;4977398;28;20042;-55
2023/12/28 12:25:31;;;;;;;15.33;1.77;;;;;;;;;;4977110;28;20046;-53
2023/12/28 12:27:59;;;;;;;11.68;1.05;;;;;;;;;;4973707;28;20041;-53
2023/12/28 12:30:27;;;;;;;11.98;1.30;;;;;;;;;;4836225;28;20046;-53
2023/12/28 12:32:55;;;;;;;10.13;1.10;;;;;;;;;;4966644;28;20077;-52
2023/12/28 12:35:28;;;;;;;10.73;1.20;;;;;;;;;;4978668;28;20049;-54
2023/12/28 12:37:55;;;;;;;14.83;1.33;;;;;;;;;;4981634;28;20045;-53
2023/12/28 12:40:24;;;;;;;13.93;2.00;;;;;;;;;;4966326;28;20069;-53
2023/12/28 12:42:55;;;;;;;16.27;1.85;;;;;;;;;;4970889;28;20041;-51
2023/12/28 12:45:23;;;;;;;14.13;1.35;;;;;;;;;;4991999;28;20046;-51
2023/12/28 12:47:52;;;;;;;11.00;1.23;;;;;;;;;;4973897;28;20034;-55
2023/12/28 12:50:22;;;;;;;8.90;1.50;;;;;;;;;;4994863;28;20503;-54
2023/12/28 12:52:51;;;;;;;15.32;1.25;;;;;;;;;;4978209;28;20060;-50
2023/12/28 12:55:20;;;;;;;14.05;1.88;;;;;;;;;;4950621;28;20049;-52
2023/12/28 12:57:49;;;;;;;17.63;1.90;;;;;;;;;;4971982;28;20058;-50
2023/12/28 13:00:17;;;;;;;14.45;1.73;;;;;;;;;;4977552;28;20046;-54
2023/12/28 13:02:45;;;;;;;16.90;1.47;;;;;;;;;;4959332;28;20051;-49
2023/12/28 13:05:13;;;;;;;12.38;1.60;;;;;;;;;;4970251;28;20485;-53
2023/12/28 13:07:41;;;;;;;15.07;1.45;;;;;;;;;;4983053;28;20043;-49
2023/12/28 13:10:11;;;;;;;16.10;1.73;;;;;;;;;;4963037;28;20045;-53
2023/12/28 13:12:39;;;;;;;12.95;1.95;;;;;;;;;;4979676;28;20634;-55
2023/12/28 13:15:09;;;;;;;15.97;1.93;;;;;;;;;;4962713;28;20042;-50
2023/12/28 13:17:37;;;;;;;9.75;1.30;;;;;;;;;;4976662;28;20290;-51
2023/12/28 13:20:07;;;;;;;13.32;1.60;;;;;;;;;;4972587;28;20061;-52
2023/12/28 13:22:35;;;;;;;12.50;1.40;;;;;;;;;;4965353;28;20041;-53
2023/12/28 13:25:04;;;;;;;7.80;0.82;;;;;;;;;;4978159;28;20038;-53
2023/12/28 13:27:33;;;;;;;15.03;1.60;;;;;;;;;;4973664;28;20065;-54
2023/12/28 13:30:03;;;;;;;9.55;1.23;;;;;;;;;;4837446;28;20050;-52
2023/12/28 13:32:31;;;;;;;11.50;1.55;;;;;;;;;;4967034;28;20505;-53
2023/12/28 13:34:58;;;;;;;14.27;1.25;;;;;;;;;;4974835;28;20554;-54
2023/12/28 13:37:30;;;;;;;11.70;1.98;;;;;;;;;;4963580;28;20511;-53
2023/12/28 13:39:58;;;;;;;10.70;1.30;;;;;;;;;;4978528;28;20049;-53
2023/12/28 13:42:26;;;;;;;17.55;2.13;;;;;;;;;;4962517;28;20065;-50
2023/12/28 13:44:55;;;;;;;11.70;1.20;;;;;;;;;;4975003;28;20046;-53
2023/12/28 13:47:22;;;;;;;10.15;1.40;;;;;;;;;;4963097;28;20053;-52
2023/12/28 13:49:50;;;;;;;6.88;1.25;;;;;;;;;;4972821;28;20069;-56
2023/12/28 13:52:18;;;;;;;12.67;1.60;;;;;;;;;;4970842;28;20060;-50
2023/12/28 13:54:46;;;;;;;13.10;2.22;;;;;;;;;;4962144;28;20108;-51
2023/12/28 13:57:14;;;;;;;15.18;1.38;;;;;;;;;;4977613;28;20057;-53
2023/12/28 13:59:42;;;;;;;12.30;1.75;;;;;;;;;;4964586;28;20057;-52
2023/12/28 14:02:11;;;;;;;15.02;1.60;;;;;;;;;;4976287;28;20056;-51
2023/12/28 14:04:39;;;;;;;13.10;1.17;;;;;;;;;;4963487;28;20400;-52
2023/12/28 14:07:06;;;;;;;13.20;1.95;;;;;;;;;;4977899;28;20046;-53
2023/12/28 14:09:35;;;;;;;14.82;1.70;;;;;;;;;;4969169;28;20046;-49
2023/12/28 14:12:05;;;;;;;14.35;1.52;;;;;;;;;;4972946;28;20133;-54
2023/12/28 14:14:33;;;;;;;10.77;0.80;;;;;;;;;;4965284;28;20343;-54
2023/12/28 14:17:04;;;;;;;13.43;1.30;;;;;;;;;;4977189;28;20046;-54
2023/12/28 14:19:33;;;;;;;18.90;1.25;;;;;;;;;;4968068;28;20038;-54
2023/12/28 14:22:01;;;;;;;12.70;1.42;;;;;;;;;;4971858;28;20828;-50
2023/12/28 14:24:29;;;;;;;10.68;1.08;;;;;;;;;;4963040;28;20402;-51
2023/12/28 14:26:57;;;;;;;17.38;2.08;;;;;;;;;;4967335;28;20132;-52
2023/12/28 14:29:25;;;;;;;10.97;1.87;;;;;;;;;;4891007;28;20053;-52
2023/12/28 14:31:53;;;;;;;12.57;1.38;;;;;;;;;;4909597;28;20227;-53
2023/12/28 14:34:21;;;;;;;11.85;1.92;;;;;;;;;;4965890;28;20542;-48
2023/12/28 14:36:51;;;;;;;12.73;1.45;;;;;;;;;;4974477;28;20042;-53
2023/12/28 14:39:19;;;;;;;16.10;1.23;;;;;;;;;;4966683;28;20135;-49